Strona główna
METAR-TAF:

METAR-TAF

Lotnisko :

Nawakszut, Mauretania

Port lotniczy Nawakszut

Szerokość geograficzna: 18-18-36N, Długość geograficzna: 015-58-11W, wysokość: 3 m

Aktualna obserwacja pogody

Raport powstał 22 minut temu, godzina 13:30 UTC
Wiatr 15 kt od północny wschód, zmienny między północ i wschód
Temperatura 24°C
Wilgotność 24%
Ciśnienie 1018 hPa
Widzialność: 4500 m
zawieja pyłowa

METAR: GQNO 181330Z 05015KT 010V080 4500 BLDU NSC 24/02 Q1018 NOSIG

czas: 13:52 (13:52 UTC)

Prognoza

Raport powstał 2 godziny i 52 minut temu, godzina 11:00 UTC
Prognoza ważna od 18 godzina 12 UTC do 19 godzina 18 UTC
Wiatr 12 kt od północny wschód
Widzialność: 6000 m

TAF: GQNO 181100Z 1812/1918 04012KT 6000 NSC

Obserwacja i prognoza pogody dla ponad 4000 lotnisk (raport METAR i TAF).

Dostępne stacje oznaczono żółtymi i czerwonymi punktami na mapie.

Najedź kursorem aby zobaczyć nazwę stacji.

Kliknij aby zobaczyć obserwacje i prognozy pogody.

Aby zmienić mapę: kliknij na zielony przycisk z czarnym krzyżykiem, aby powiększyć; na zielony przycisk z myślnikiem, aby pomniejszyć; na zielone strzałki, aby przejść do map sąsiednich.


METAR-TAF: